createdAt,value
2023-05-10T00:00:47.465Z,1381.00
2023-05-10T00:01:47.470Z,1394.00
2023-05-10T00:02:47.562Z,1370.00
2023-05-10T00:03:47.546Z,1364.00
2023-05-10T00:04:47.524Z,1376.00
2023-05-10T00:05:47.538Z,1385.00
2023-05-10T00:06:47.530Z,1386.00
2023-05-10T00:07:47.542Z,1390.00
2023-05-10T00:08:47.546Z,1402.00
2023-05-10T00:09:47.537Z,1379.00
2023-05-10T00:10:47.554Z,1394.00
2023-05-10T00:11:47.571Z,1368.00
2023-05-10T00:12:47.620Z,1370.00
2023-05-10T00:13:47.581Z,1363.00
2023-05-10T00:14:47.611Z,1376.00
2023-05-10T00:15:47.616Z,1382.00
2023-05-10T00:16:47.670Z,1369.00
2023-05-10T00:17:47.664Z,1371.00
2023-05-10T00:18:47.641Z,1351.00
2023-05-10T00:19:47.644Z,1344.00
2023-05-10T00:20:47.692Z,1335.00
2023-05-10T00:21:47.716Z,1362.00
2023-05-10T00:22:47.774Z,1359.00
2023-05-10T00:23:47.768Z,1338.00
2023-05-10T00:24:47.796Z,1369.00
2023-05-10T00:25:47.839Z,1337.00
2023-05-10T00:26:47.873Z,1359.00
2023-05-10T00:27:47.928Z,1367.00
2023-05-10T00:28:47.947Z,1356.00
2023-05-10T00:29:47.984Z,1365.00
2023-05-10T00:30:48.028Z,1362.00
2023-05-10T00:31:48.115Z,1323.00
2023-05-10T00:32:48.127Z,1346.00
2023-05-10T00:33:48.147Z,1315.00
2023-05-10T00:34:48.161Z,1345.00
2023-05-10T00:35:48.202Z,1338.00
2023-05-10T00:36:48.233Z,1347.00
2023-05-10T00:37:48.269Z,1329.00
2023-05-10T00:38:48.366Z,1330.00
2023-05-10T00:39:48.313Z,1337.00
2023-05-10T00:40:48.361Z,1338.00
2023-05-10T00:41:48.389Z,1332.00
2023-05-10T00:42:48.413Z,1335.00
2023-05-10T00:43:48.448Z,1337.00
2023-05-10T00:44:48.482Z,1330.00
2023-05-10T00:45:48.544Z,1348.00
2023-05-10T00:46:48.561Z,1337.00
2023-05-10T00:47:48.616Z,1338.00
2023-05-10T00:48:48.589Z,1337.00
2023-05-10T00:49:48.573Z,1323.00
2023-05-10T00:50:48.584Z,1301.00
2023-05-10T00:51:48.597Z,1322.00
2023-05-10T00:52:48.605Z,1326.00
2023-05-10T00:53:48.647Z,1313.00
2023-05-10T00:54:48.665Z,1306.00
2023-05-10T00:55:48.692Z,1288.00
2023-05-10T00:56:48.644Z,1302.00
2023-05-10T00:57:48.650Z,1315.00
2023-05-10T00:58:48.674Z,1309.00
2023-05-10T00:59:48.676Z,1324.00
2023-05-10T01:00:48.694Z,1306.00
2023-05-10T01:01:48.788Z,1307.00
2023-05-10T01:02:48.821Z,1302.00
2023-05-10T01:03:48.731Z,1311.00
2023-05-10T01:04:48.776Z,1295.00
2023-05-10T01:05:48.759Z,1301.00
2023-05-10T01:06:48.775Z,1297.00
2023-05-10T01:07:48.791Z,1286.00
2023-05-10T01:08:48.832Z,1279.00
2023-05-10T01:09:48.853Z,1290.00
2023-05-10T01:10:48.913Z,1301.00
2023-05-10T01:11:48.929Z,1304.00
2023-05-10T01:12:48.986Z,1274.00
2023-05-10T01:13:49.013Z,1291.00
2023-05-10T01:14:49.050Z,1275.00
2023-05-10T01:15:49.106Z,1288.00
2023-05-10T01:16:49.136Z,1266.00
2023-05-10T01:17:49.231Z,1271.00
2023-05-10T01:18:49.200Z,1298.00
2023-05-10T01:19:49.230Z,1292.00
2023-05-10T01:20:49.268Z,1304.00
2023-05-10T01:21:49.319Z,1288.00
2023-05-10T01:22:49.381Z,1261.00
2023-05-10T01:23:49.393Z,1266.00
2023-05-10T01:24:49.427Z,1250.00
2023-05-10T01:25:49.463Z,1239.00
2023-05-10T01:26:49.512Z,1254.00
2023-05-10T01:27:49.528Z,1254.00
2023-05-10T01:28:49.599Z,1255.00
2023-05-10T01:29:55.726Z,1269.00
2023-05-10T01:30:50.621Z,1270.00
2023-05-10T01:31:49.729Z,1267.00
2023-05-10T01:32:49.685Z,1265.00
2023-05-10T01:33:49.655Z,1275.00
2023-05-10T01:34:49.667Z,1272.00
2023-05-10T01:35:49.738Z,1276.00
2023-05-10T01:36:49.701Z,1297.00
2023-05-10T01:37:49.698Z,1239.00
2023-05-10T01:38:49.711Z,1265.00
2023-05-10T01:39:49.709Z,1260.00
2023-05-10T01:40:49.732Z,1241.00
2023-05-10T01:41:49.738Z,1257.00
2023-05-10T01:42:49.769Z,1267.00
2023-05-10T01:43:49.749Z,1269.00
2023-05-10T01:44:49.783Z,1260.00
2023-05-10T01:45:49.776Z,1261.00
2023-05-10T01:46:49.794Z,1262.00
2023-05-10T01:47:49.820Z,1256.00
2023-05-10T01:48:49.795Z,1250.00
2023-05-10T01:49:49.791Z,1256.00
2023-05-10T01:50:49.794Z,1246.00
2023-05-10T01:51:49.827Z,1261.00
2023-05-10T01:52:49.821Z,1269.00
2023-05-10T01:53:49.832Z,1243.00
2023-05-10T01:54:49.843Z,1258.00
2023-05-10T01:55:49.855Z,1258.00
2023-05-10T01:56:49.867Z,1269.00
2023-05-10T01:57:49.849Z,1250.00
2023-05-10T01:58:49.873Z,1281.00
2023-05-10T01:59:49.896Z,1297.00
2023-05-10T02:00:49.995Z,1278.00
2023-05-10T02:01:49.971Z,1282.00
2023-05-10T02:02:50.078Z,1263.00
2023-05-10T02:03:50.139Z,1252.00
2023-05-10T02:04:50.097Z,1269.00
2023-05-10T02:05:50.140Z,1275.00
2023-05-10T02:06:50.162Z,1267.00
2023-05-10T02:07:50.239Z,1270.00
2023-05-10T02:08:50.264Z,1252.00
2023-05-10T02:09:50.298Z,1245.00
2023-05-10T02:10:50.331Z,1269.00
2023-05-10T02:11:50.393Z,1258.00
2023-05-10T02:12:50.531Z,1256.00
2023-05-10T02:13:50.476Z,1257.00
2023-05-10T02:14:50.512Z,1265.00
2023-05-10T02:15:50.596Z,1266.00
2023-05-10T02:16:50.666Z,1282.00
2023-05-10T02:17:50.796Z,1282.00
2023-05-10T02:18:50.720Z,1283.00
2023-05-10T02:19:50.761Z,1254.00
2023-05-10T02:20:50.779Z,1262.00
2023-05-10T02:21:50.824Z,1272.00
2023-05-10T02:22:50.872Z,1290.00
2023-05-10T02:23:50.940Z,1301.00
2023-05-10T02:24:50.927Z,1301.00
2023-05-10T02:25:50.928Z,1287.00
2023-05-10T02:26:50.932Z,1294.00
2023-05-10T02:27:50.947Z,1302.00
2023-05-10T02:28:50.949Z,1286.00
2023-05-10T02:29:50.982Z,1287.00
2023-05-10T02:30:50.965Z,1301.00
2023-05-10T02:31:51.017Z,1301.00
2023-05-10T02:32:51.036Z,1297.00
2023-05-10T02:33:51.024Z,1292.00
2023-05-10T02:34:51.057Z,1302.00
2023-05-10T02:35:51.014Z,1303.00
2023-05-10T02:36:51.045Z,1308.00
2023-05-10T02:37:51.048Z,1313.00
2023-05-10T02:38:51.061Z,1322.00
2023-05-10T02:39:51.075Z,1321.00
2023-05-10T02:40:51.080Z,1320.00
2023-05-10T02:41:51.079Z,1321.00
2023-05-10T02:42:51.097Z,1325.00
2023-05-10T02:43:51.112Z,1326.00
2023-05-10T02:44:51.105Z,1324.00
2023-05-10T02:45:51.169Z,1322.00
2023-05-10T02:46:51.116Z,1324.00
2023-05-10T02:47:51.132Z,1327.00
2023-05-10T02:48:51.125Z,1335.00
2023-05-10T02:49:51.164Z,1346.00
2023-05-10T02:50:51.150Z,1356.00
2023-05-10T02:51:51.154Z,1339.00
2023-05-10T02:52:51.157Z,1331.00
2023-05-10T02:53:51.182Z,1329.00
2023-05-10T02:54:51.183Z,1344.00
2023-05-10T02:55:51.198Z,1334.00
2023-05-10T02:56:51.197Z,1344.00
2023-05-10T02:57:51.204Z,1343.00
2023-05-10T02:58:51.236Z,1351.00
2023-05-10T02:59:51.224Z,1327.00
2023-05-10T03:00:51.275Z,1334.00
2023-05-10T03:01:51.364Z,1339.00
2023-05-10T03:02:51.387Z,1338.00
2023-05-10T03:03:51.376Z,1338.00
2023-05-10T03:04:51.480Z,1341.00
2023-05-10T03:05:51.417Z,1346.00
2023-05-10T03:06:51.611Z,1345.00
2023-05-10T03:07:51.418Z,1357.00
2023-05-10T03:08:51.398Z,1357.00
2023-05-10T03:09:51.395Z,1356.00
2023-05-10T03:10:51.408Z,1351.00
2023-05-10T03:11:51.404Z,1353.00
2023-05-10T03:12:51.454Z,1327.00
2023-05-10T03:13:51.436Z,1343.00
2023-05-10T03:14:51.449Z,1338.00
2023-05-10T03:15:51.456Z,1345.00
2023-05-10T03:16:51.436Z,1354.00
2023-05-10T03:17:51.496Z,1328.00
2023-05-10T03:18:51.517Z,1319.00
2023-05-10T03:19:51.589Z,1341.00
2023-05-10T03:20:51.611Z,1341.00
2023-05-10T03:21:51.654Z,1355.00
2023-05-10T03:22:51.681Z,1347.00
2023-05-10T03:23:51.737Z,1359.00
2023-05-10T03:24:51.783Z,1354.00
2023-05-10T03:25:51.788Z,1355.00
2023-05-10T03:26:51.779Z,1355.00
2023-05-10T03:27:51.788Z,1360.00
2023-05-10T03:28:51.798Z,1360.00
2023-05-10T03:29:51.801Z,1367.00
2023-05-10T03:30:51.802Z,1356.00
2023-05-10T03:33:10.910Z,500.00
2023-05-10T03:34:10.888Z,500.00
2023-05-10T03:35:10.890Z,500.00
2023-05-10T03:36:10.910Z,500.00
2023-05-10T03:37:10.897Z,500.00
2023-05-10T03:38:10.889Z,500.00
2023-05-10T03:39:10.883Z,506.00
2023-05-10T03:40:10.872Z,504.00
2023-05-10T03:41:10.873Z,500.00
2023-05-10T03:42:10.912Z,506.00
2023-05-10T03:43:10.899Z,500.00
2023-05-10T03:44:10.887Z,502.00
2023-05-10T03:45:10.915Z,500.00
2023-05-10T03:46:10.983Z,508.00
2023-05-10T03:47:10.908Z,501.00
2023-05-10T03:48:10.986Z,504.00
2023-05-10T03:49:10.907Z,503.00
2023-05-10T03:50:10.918Z,503.00
2023-05-10T03:51:10.915Z,504.00
2023-05-10T03:52:10.905Z,511.00
2023-05-10T03:53:10.897Z,507.00
2023-05-10T03:54:10.953Z,507.00
2023-05-10T03:55:10.884Z,504.00
2023-05-10T03:56:10.910Z,516.00
2023-05-10T03:57:10.880Z,509.00
2023-05-10T03:58:10.869Z,508.00
2023-05-10T03:59:10.878Z,512.00
2023-05-10T04:00:10.870Z,511.00
2023-05-10T04:01:10.859Z,511.00
2023-05-10T04:02:10.917Z,516.00
2023-05-10T04:03:10.894Z,513.00
2023-05-10T04:04:10.922Z,513.00
2023-05-10T04:05:10.830Z,514.00
2023-05-10T04:06:10.843Z,514.00
2023-05-10T04:07:10.829Z,516.00
2023-05-10T04:08:10.824Z,516.00
2023-05-10T04:09:10.827Z,515.00
2023-05-10T04:10:10.813Z,517.00
2023-05-10T04:11:10.806Z,518.00
2023-05-10T04:12:11.105Z,510.00
2023-05-10T04:13:10.816Z,516.00
2023-05-10T04:14:10.806Z,527.00
2023-05-10T04:15:10.842Z,521.00
2023-05-10T04:16:10.886Z,523.00
2023-05-10T04:17:10.960Z,523.00
2023-05-10T04:18:11.094Z,522.00
2023-05-10T04:19:11.070Z,521.00
2023-05-10T04:20:11.117Z,523.00
2023-05-10T04:21:11.189Z,521.00
2023-05-10T04:22:11.226Z,524.00
2023-05-10T04:23:11.326Z,518.00
2023-05-10T04:24:11.983Z,521.00
2023-05-10T04:25:11.365Z,522.00
2023-05-10T04:26:11.407Z,525.00
2023-05-10T04:27:11.472Z,522.00
2023-05-10T04:28:11.503Z,521.00
2023-05-10T04:29:11.508Z,521.00
2023-05-10T04:30:11.517Z,522.00
2023-05-10T04:31:11.556Z,521.00
2023-05-10T04:32:11.491Z,522.00
2023-05-10T04:33:11.495Z,521.00
2023-05-10T04:34:11.496Z,522.00
2023-05-10T04:35:11.494Z,524.00
2023-05-10T04:36:11.486Z,526.00
2023-05-10T04:37:11.484Z,530.00
2023-05-10T04:38:11.479Z,529.00
2023-05-10T04:39:11.486Z,528.00
2023-05-10T04:40:11.484Z,526.00
2023-05-10T04:41:11.511Z,530.00
2023-05-10T04:42:11.464Z,533.00
2023-05-10T04:43:11.466Z,535.00
2023-05-10T04:44:11.473Z,535.00
2023-05-10T04:45:11.444Z,536.00
2023-05-10T04:46:11.490Z,537.00
2023-05-10T04:47:12.785Z,539.00
2023-05-10T04:48:11.435Z,535.00
2023-05-10T04:49:11.465Z,536.00
2023-05-10T04:50:11.415Z,538.00
2023-05-10T04:51:11.412Z,541.00
2023-05-10T04:52:11.410Z,542.00
2023-05-10T04:53:11.410Z,543.00
2023-05-10T04:54:11.497Z,541.00
2023-05-10T04:55:11.431Z,544.00
2023-05-10T04:56:11.412Z,538.00
2023-05-10T04:57:11.390Z,543.00
2023-05-10T04:58:11.387Z,542.00
2023-05-10T04:59:11.398Z,542.00
2023-05-10T05:00:11.426Z,536.00
2023-05-10T05:01:11.528Z,540.00
2023-05-10T05:02:11.526Z,539.00
2023-05-10T05:03:11.668Z,539.00
2023-05-10T05:04:11.649Z,537.00
2023-05-10T05:05:11.698Z,541.00
2023-05-10T05:06:11.776Z,539.00
2023-05-10T05:07:11.789Z,542.00
2023-05-10T05:08:11.837Z,539.00
2023-05-10T05:09:11.880Z,546.00
2023-05-10T05:10:11.950Z,539.00
2023-05-10T05:11:11.984Z,545.00
2023-05-10T05:12:12.062Z,545.00
2023-05-10T05:13:12.101Z,545.00
2023-05-10T05:14:12.170Z,544.00
2023-05-10T05:15:12.211Z,546.00
2023-05-10T05:16:12.453Z,544.00
2023-05-10T05:17:12.347Z,543.00
2023-05-10T05:18:12.464Z,545.00
2023-05-10T05:19:12.456Z,543.00
2023-05-10T05:20:12.564Z,542.00
2023-05-10T05:21:12.573Z,546.00
2023-05-10T05:22:12.629Z,544.00
2023-05-10T05:23:12.693Z,545.00
2023-05-10T05:24:12.794Z,544.00
2023-05-10T05:25:12.829Z,544.00
2023-05-10T05:26:12.808Z,544.00
2023-05-10T05:27:12.810Z,545.00
2023-05-10T05:28:12.814Z,546.00
2023-05-10T05:29:12.872Z,545.00
2023-05-10T05:30:12.844Z,551.00
2023-05-10T05:31:13.074Z,554.00
2023-05-10T05:32:12.894Z,564.00
2023-05-10T05:33:12.841Z,571.00
2023-05-10T05:34:12.852Z,580.00
2023-05-10T05:35:12.809Z,606.00
2023-05-10T05:36:12.859Z,651.00
2023-05-10T05:37:12.924Z,697.00
2023-05-10T05:38:12.948Z,745.00
2023-05-10T05:39:13.003Z,811.00
2023-05-10T05:40:13.029Z,826.00
2023-05-10T05:41:13.085Z,861.00
2023-05-10T05:42:13.085Z,920.00
2023-05-10T05:43:13.156Z,933.00
2023-05-10T05:44:13.140Z,903.00
2023-05-10T05:45:13.171Z,946.00
2023-05-10T05:46:13.201Z,929.00
2023-05-10T05:47:13.195Z,963.00
2023-05-10T05:48:13.221Z,957.00
2023-05-10T05:49:13.231Z,947.00
2023-05-10T05:50:13.232Z,1016.00
2023-05-10T05:51:13.222Z,1003.00
2023-05-10T05:52:13.263Z,982.00
2023-05-10T05:53:13.261Z,999.00
2023-05-10T05:54:13.262Z,995.00
2023-05-10T05:55:13.259Z,1063.00
2023-05-10T05:56:13.240Z,1065.00
2023-05-10T05:57:13.231Z,1077.00
2023-05-10T05:58:13.228Z,1094.00
2023-05-10T05:59:13.208Z,1133.00
2023-05-10T06:00:13.734Z,1201.00
2023-05-10T06:01:13.216Z,1219.00
2023-05-10T06:02:13.300Z,1263.00
2023-05-10T06:03:13.319Z,1315.00
2023-05-10T06:04:13.282Z,1317.00
2023-05-10T06:05:13.180Z,1330.00
2023-05-10T06:06:13.170Z,1360.00
2023-05-10T06:07:13.177Z,1443.00
2023-05-10T06:08:13.148Z,1324.00
2023-05-10T06:09:13.157Z,1357.00
2023-05-10T06:10:13.123Z,1425.00
2023-05-10T06:11:13.120Z,1532.00
2023-05-10T06:12:13.129Z,1722.00
2023-05-10T06:13:13.152Z,1774.00
2023-05-10T06:14:13.108Z,1801.00
2023-05-10T06:15:13.134Z,1835.00
2023-05-10T06:16:13.072Z,1854.00
2023-05-10T06:17:13.057Z,1868.00
2023-05-10T06:18:13.161Z,1877.00
2023-05-10T06:19:13.032Z,1895.00
2023-05-10T06:20:13.069Z,1916.00
2023-05-10T06:21:13.096Z,1936.00
2023-05-10T06:22:13.139Z,1954.00
2023-05-10T06:23:13.167Z,1966.00
2023-05-10T06:24:13.205Z,1969.00
2023-05-10T06:25:13.262Z,1986.00
2023-05-10T06:26:13.257Z,2022.00
2023-05-10T06:27:14.138Z,2046.00
2023-05-10T06:28:13.276Z,2048.00
2023-05-10T06:29:13.237Z,2057.00
2023-05-10T06:30:13.802Z,2070.00
2023-05-10T06:31:13.265Z,2097.00
2023-05-10T06:32:13.217Z,2111.00
2023-05-10T06:33:13.198Z,2118.00
2023-05-10T06:34:13.160Z,2117.00
2023-05-10T06:35:13.152Z,2117.00
2023-05-10T06:36:13.153Z,2121.00
2023-05-10T06:37:13.139Z,2119.00
2023-05-10T06:38:13.099Z,2138.00
2023-05-10T06:39:13.075Z,2142.00
2023-05-10T06:40:13.099Z,2152.00
2023-05-10T06:41:13.040Z,2133.00
2023-05-10T06:42:13.038Z,2114.00
2023-05-10T06:43:13.012Z,2148.00
2023-05-10T06:44:13.110Z,2143.00
2023-05-10T06:45:12.971Z,2146.00
2023-05-10T06:46:12.969Z,2157.00
2023-05-10T06:47:12.921Z,2187.00
2023-05-10T06:48:13.024Z,2225.00
2023-05-10T06:49:12.920Z,2331.00
2023-05-10T06:50:12.997Z,2304.00
2023-05-10T06:51:12.898Z,2272.00
2023-05-10T06:52:12.844Z,2277.00
2023-05-10T06:53:12.877Z,2255.00
2023-05-10T06:54:12.861Z,2234.00
2023-05-10T06:55:12.810Z,2220.00
2023-05-10T06:56:12.815Z,2221.00
2023-05-10T06:57:23.262Z,2217.00
2023-05-10T06:58:13.772Z,2217.00
2023-05-10T06:59:12.796Z,2178.00
2023-05-10T07:00:12.850Z,2194.00
2023-05-10T07:01:12.792Z,2169.00
2023-05-10T07:02:12.782Z,2166.00
2023-05-10T07:03:12.864Z,2205.00
2023-05-10T07:04:12.668Z,2175.00
2023-05-10T07:05:12.654Z,2152.00
2023-05-10T07:06:21.599Z,2147.00
2023-05-10T07:07:13.651Z,2156.00
2023-05-10T07:08:12.598Z,2160.00
2023-05-10T07:09:12.600Z,2142.00
2023-05-10T07:10:12.566Z,2092.00
2023-05-10T07:11:12.539Z,2097.00
2023-05-10T07:12:14.745Z,2093.00
2023-05-10T07:13:12.681Z,2099.00
2023-05-10T07:14:12.669Z,2106.00
2023-05-10T07:15:13.228Z,2111.00
2023-05-10T07:16:12.548Z,2093.00
2023-05-10T07:17:12.540Z,2090.00
2023-05-10T07:18:12.498Z,2009.00
2023-05-10T07:19:13.402Z,1988.00
2023-05-10T07:20:12.417Z,2006.00
2023-05-10T07:21:12.399Z,1993.00
2023-05-10T07:22:12.346Z,1863.00
2023-05-10T07:23:13.167Z,1887.00
2023-05-10T07:24:12.333Z,1883.00
2023-05-10T07:25:12.367Z,1893.00
2023-05-10T07:26:12.335Z,1894.00
2023-05-10T07:27:12.298Z,1871.00
2023-05-10T07:28:12.257Z,1838.00
2023-05-10T07:29:12.227Z,1814.00
2023-05-10T07:30:12.224Z,1780.00
2023-05-10T07:31:12.215Z,1775.00
2023-05-10T07:32:12.217Z,1752.00
2023-05-10T07:33:12.266Z,1732.00
2023-05-10T07:34:12.206Z,1709.00
2023-05-10T07:35:12.178Z,1694.00
2023-05-10T07:36:12.176Z,1667.00
2023-05-10T07:37:12.164Z,1661.00
2023-05-10T07:38:12.202Z,1652.00
2023-05-10T07:39:16.258Z,1647.00
2023-05-10T07:40:12.196Z,1499.00
2023-05-10T07:41:12.106Z,646.00
2023-05-10T07:42:12.150Z,654.00
2023-05-10T07:43:12.133Z,615.00
2023-05-10T07:44:12.100Z,576.00
2023-05-10T07:45:12.110Z,546.00
2023-05-10T07:46:12.190Z,505.00
2023-05-10T07:47:12.131Z,535.00
2023-05-10T07:48:12.112Z,536.00
2023-05-10T07:49:12.116Z,483.00
2023-05-10T07:50:12.078Z,408.00
2023-05-10T07:51:12.085Z,447.00
2023-05-10T07:52:12.095Z,518.00
2023-05-10T07:53:12.113Z,560.00
2023-05-10T07:54:12.105Z,614.00
2023-05-10T07:55:12.077Z,707.00
2023-05-10T07:56:12.075Z,775.00
2023-05-10T07:57:12.110Z,821.00
2023-05-10T07:58:12.030Z,851.00
2023-05-10T07:59:12.880Z,880.00
2023-05-10T08:00:12.029Z,892.00
2023-05-10T08:01:12.028Z,905.00
2023-05-10T08:02:12.123Z,843.00
2023-05-10T08:03:12.302Z,734.00
2023-05-10T08:04:12.164Z,613.00
2023-05-10T08:05:12.208Z,584.00
2023-05-10T08:06:12.129Z,558.00
2023-05-10T08:07:12.110Z,526.00
2023-05-10T08:08:12.176Z,425.00
2023-05-10T08:09:12.109Z,400.00
2023-05-10T08:10:12.188Z,419.00
2023-05-10T08:11:12.085Z,440.00
2023-05-10T08:12:12.095Z,505.00
2023-05-10T08:13:12.085Z,575.00
2023-05-10T08:14:12.192Z,616.00
2023-05-10T08:15:13.198Z,632.00
2023-05-10T08:16:12.289Z,691.00
2023-05-10T08:17:12.327Z,798.00
2023-05-10T08:18:12.385Z,901.00
2023-05-10T08:19:12.415Z,903.00
2023-05-10T08:20:12.439Z,959.00
2023-05-10T08:21:12.496Z,876.00
2023-05-10T08:22:12.445Z,911.00
2023-05-10T08:23:12.439Z,866.00
2023-05-10T08:24:12.482Z,880.00
2023-05-10T08:25:12.474Z,803.00
2023-05-10T08:26:12.484Z,844.00
2023-05-10T08:27:12.490Z,758.00
2023-05-10T08:28:12.535Z,788.00
2023-05-10T08:29:12.533Z,712.00
2023-05-10T08:30:12.593Z,627.00
2023-05-10T08:31:12.612Z,615.00
2023-05-10T08:32:12.641Z,794.00
2023-05-10T08:33:12.650Z,1093.00
2023-05-10T08:34:12.562Z,937.00
2023-05-10T08:35:12.634Z,765.00
2023-05-10T08:36:12.600Z,661.00
2023-05-10T08:37:12.636Z,770.00
2023-05-10T08:38:12.672Z,664.00
2023-05-10T08:39:22.862Z,607.00
2023-05-10T08:40:12.717Z,608.00
2023-05-10T08:41:12.723Z,612.00
2023-05-10T08:42:12.745Z,624.00
2023-05-10T08:43:12.726Z,540.00
2023-05-10T08:44:12.753Z,507.00
2023-05-10T08:45:12.757Z,497.00
2023-05-10T08:46:12.756Z,497.00
2023-05-10T08:47:12.822Z,510.00
2023-05-10T08:48:12.809Z,549.00
2023-05-10T08:49:12.717Z,619.00
2023-05-10T08:50:12.741Z,722.00
2023-05-10T08:51:12.725Z,688.00
2023-05-10T08:52:12.730Z,622.00
2023-05-10T08:53:12.761Z,561.00
2023-05-10T08:54:12.739Z,542.00
2023-05-10T08:55:12.827Z,520.00
2023-05-10T08:56:12.786Z,536.00
2023-05-10T08:57:12.772Z,538.00
2023-05-10T08:58:12.791Z,505.00
2023-05-10T08:59:12.781Z,573.00
2023-05-10T09:00:12.951Z,615.00
2023-05-10T09:01:12.960Z,721.00
2023-05-10T09:02:12.959Z,943.00
2023-05-10T09:03:12.959Z,1091.00
2023-05-10T09:04:13.064Z,1002.00
2023-05-10T09:05:13.022Z,1067.00
2023-05-10T09:06:13.001Z,947.00
2023-05-10T09:07:12.992Z,842.00
2023-05-10T09:08:13.060Z,1086.00
2023-05-10T09:09:13.045Z,993.00
2023-05-10T09:10:13.068Z,793.00
2023-05-10T09:11:13.058Z,820.00
2023-05-10T09:12:13.074Z,780.00
2023-05-10T09:13:13.107Z,953.00
2023-05-10T09:14:13.206Z,921.00
2023-05-10T09:15:13.214Z,1055.00
2023-05-10T09:16:20.938Z,923.00
2023-05-10T09:17:14.259Z,929.00
2023-05-10T09:18:13.395Z,830.00
2023-05-10T09:19:13.390Z,649.00
2023-05-10T09:20:13.495Z,687.00
2023-05-10T09:21:13.297Z,896.00
2023-05-10T09:22:13.229Z,952.00
2023-05-10T09:23:13.250Z,750.00
2023-05-10T09:24:13.230Z,729.00
2023-05-10T09:25:13.245Z,665.00
2023-05-10T09:26:13.305Z,651.00
2023-05-10T09:27:13.363Z,742.00
2023-05-10T09:28:13.233Z,719.00
2023-05-10T09:29:14.669Z,633.00
2023-05-10T09:30:13.213Z,593.00
2023-05-10T09:31:13.334Z,618.00
2023-05-10T09:32:13.785Z,616.00
2023-05-10T09:33:13.243Z,848.00
2023-05-10T09:34:13.242Z,567.00
2023-05-10T09:35:13.253Z,635.00
2023-05-10T09:36:13.320Z,598.00
2023-05-10T09:37:13.274Z,607.00
2023-05-10T09:38:13.392Z,681.00
2023-05-10T09:39:13.359Z,639.00
2023-05-10T09:40:14.160Z,864.00
2023-05-10T09:41:13.446Z,1048.00
2023-05-10T09:42:13.516Z,948.00
2023-05-10T09:43:13.501Z,653.00
2023-05-10T09:44:13.548Z,661.00
2023-05-10T09:45:13.628Z,633.00
2023-05-10T09:46:13.686Z,996.00
2023-05-10T09:47:13.615Z,1139.00
2023-05-10T09:48:13.711Z,848.00
2023-05-10T09:49:13.796Z,722.00
2023-05-10T09:50:13.899Z,697.00
2023-05-10T09:51:13.897Z,558.00
2023-05-10T09:52:13.866Z,546.00
2023-05-10T09:53:13.873Z,511.00
2023-05-10T09:54:13.916Z,464.00
2023-05-10T09:55:14.083Z,481.00
2023-05-10T09:56:13.899Z,400.00
2023-05-10T09:57:14.214Z,443.00
2023-05-10T09:58:13.884Z,477.00
2023-05-10T09:59:13.871Z,489.00
2023-05-10T10:00:13.895Z,503.00
2023-05-10T10:01:13.938Z,527.00
2023-05-10T10:02:13.983Z,500.00
2023-05-10T10:03:13.881Z,503.00
2023-05-10T10:04:13.938Z,509.00
2023-05-10T10:05:14.010Z,500.00
2023-05-10T10:06:26.457Z,500.00
2023-05-10T10:07:14.951Z,461.00
2023-05-10T10:08:14.067Z,479.00
2023-05-10T10:09:13.936Z,426.00
2023-05-10T10:10:13.930Z,422.00
2023-05-10T10:11:13.959Z,491.00
2023-05-10T10:12:13.927Z,496.00
2023-05-10T10:13:13.950Z,519.00
2023-05-10T10:14:14.069Z,526.00
2023-05-10T10:15:16.507Z,605.00
2023-05-10T10:16:14.050Z,624.00
2023-05-10T10:17:13.944Z,826.00
2023-05-10T10:18:13.915Z,1202.00
2023-05-10T10:19:13.907Z,1462.00
2023-05-10T10:20:14.253Z,1593.00
2023-05-10T10:21:13.922Z,1601.00
2023-05-10T10:22:13.914Z,1668.00
2023-05-10T10:23:15.831Z,1504.00
2023-05-10T10:24:13.888Z,1504.00
2023-05-10T10:25:13.938Z,1370.00
2023-05-10T10:26:13.886Z,1388.00
2023-05-10T10:27:13.892Z,1005.00
2023-05-10T10:28:13.891Z,1001.00
2023-05-10T10:29:13.918Z,1255.00
2023-05-10T10:30:13.975Z,1384.00
2023-05-10T10:31:13.879Z,1481.00
2023-05-10T10:32:13.860Z,1526.00
2023-05-10T10:33:27.243Z,1605.00
2023-05-10T10:34:14.859Z,1509.00
2023-05-10T10:35:13.844Z,1529.00
2023-05-10T10:36:13.849Z,1580.00
2023-05-10T10:37:13.854Z,1641.00
2023-05-10T10:38:13.810Z,1710.00
2023-05-10T10:39:13.853Z,1763.00
2023-05-10T10:40:13.777Z,1877.00
2023-05-10T10:41:13.779Z,1885.00
2023-05-10T10:42:13.776Z,1984.00
2023-05-10T10:43:13.847Z,1965.00
2023-05-10T10:44:13.737Z,2001.00
2023-05-10T10:45:13.899Z,2039.00
2023-05-10T10:46:13.726Z,1935.00
2023-05-10T10:47:13.715Z,1871.00
2023-05-10T10:48:13.710Z,1856.00
2023-05-10T10:49:13.724Z,1892.00
2023-05-10T10:50:13.706Z,1876.00
2023-05-10T10:51:13.660Z,1951.00
2023-05-10T10:52:13.663Z,1976.00
2023-05-10T10:53:13.674Z,1939.00
2023-05-10T10:54:13.679Z,1898.00
2023-05-10T10:55:13.634Z,1867.00
2023-05-10T10:56:13.659Z,1797.00
2023-05-10T10:57:13.599Z,1873.00
2023-05-10T10:58:13.589Z,1789.00
2023-05-10T10:59:13.576Z,1531.00
2023-05-10T11:00:13.576Z,1667.00
2023-05-10T11:01:13.633Z,1701.00
2023-05-10T11:02:13.586Z,1469.00
2023-05-10T11:03:13.633Z,1593.00
2023-05-10T11:04:14.046Z,1637.00
2023-05-10T11:05:13.718Z,1677.00
2023-05-10T11:06:13.723Z,1723.00
2023-05-10T11:07:13.759Z,1752.00
2023-05-10T11:08:13.756Z,1753.00
2023-05-10T11:09:13.725Z,1256.00
2023-05-10T11:10:13.716Z,1041.00
2023-05-10T11:11:13.725Z,1304.00
2023-05-10T11:12:13.812Z,932.00
2023-05-10T11:13:13.704Z,1239.00
2023-05-10T11:14:14.570Z,832.00
2023-05-10T11:15:13.692Z,1153.00
2023-05-10T11:16:13.691Z,1345.00
2023-05-10T11:17:13.739Z,1399.00
2023-05-10T11:18:13.710Z,1390.00
2023-05-10T11:19:13.799Z,1214.00
2023-05-10T11:20:13.729Z,1176.00
2023-05-10T11:21:14.052Z,1264.00
2023-05-10T11:22:13.612Z,600.00
2023-05-10T11:23:13.674Z,547.00
2023-05-10T11:24:13.725Z,427.00
2023-05-10T11:25:13.628Z,605.00
2023-05-10T11:26:13.615Z,766.00
2023-05-10T11:27:14.229Z,939.00
2023-05-10T11:28:13.616Z,1170.00
2023-05-10T11:29:13.622Z,1656.00
2023-05-10T11:30:13.841Z,1850.00
2023-05-10T11:31:13.733Z,1951.00
2023-05-10T11:32:13.779Z,2113.00
2023-05-10T11:33:13.731Z,2279.00
2023-05-10T11:34:13.797Z,2326.00
2023-05-10T11:35:13.765Z,2386.00
2023-05-10T11:36:13.798Z,2420.00
2023-05-10T11:37:13.818Z,2425.00
2023-05-10T11:38:13.814Z,2480.00
2023-05-10T11:39:13.851Z,2464.00
2023-05-10T11:40:13.891Z,2467.00
2023-05-10T11:41:13.888Z,2434.00
2023-05-10T11:42:13.886Z,2451.00
2023-05-10T11:43:13.877Z,2427.00
2023-05-10T11:44:13.893Z,2466.00
2023-05-10T11:45:13.893Z,2434.00
2023-05-10T11:46:13.937Z,2412.00
2023-05-10T11:47:13.919Z,2413.00
2023-05-10T11:48:13.925Z,2421.00
2023-05-10T11:49:13.884Z,2419.00
2023-05-10T11:50:14.003Z,2418.00
2023-05-10T11:51:13.881Z,2438.00
2023-05-10T11:52:13.872Z,2397.00
2023-05-10T11:53:13.953Z,2368.00
2023-05-10T11:54:13.870Z,2347.00
2023-05-10T11:55:13.879Z,2356.00
2023-05-10T11:56:13.839Z,2355.00
2023-05-10T11:57:13.992Z,2356.00
2023-05-10T11:58:13.855Z,2312.00
2023-05-10T11:59:13.840Z,2316.00
2023-05-10T12:00:13.927Z,2315.00
2023-05-10T12:01:13.849Z,2267.00
2023-05-10T12:02:13.819Z,2264.00
2023-05-10T12:03:13.978Z,2302.00
2023-05-10T12:04:14.043Z,2248.00
2023-05-10T12:05:13.815Z,2263.00
2023-05-10T12:06:14.191Z,2253.00
2023-05-10T12:07:13.828Z,2255.00
2023-05-10T12:08:13.820Z,2222.00
2023-05-10T12:09:13.791Z,2242.00
2023-05-10T12:10:13.862Z,2205.00
2023-05-10T12:11:13.826Z,2199.00
2023-05-10T12:12:13.781Z,2125.00
2023-05-10T12:13:13.763Z,2133.00
2023-05-10T12:14:14.758Z,2102.00
2023-05-10T12:15:13.932Z,2127.00
2023-05-10T12:16:13.833Z,2112.00